Time;durP1;ratioP1;P1;durP2;ratioP2;P2;SDS_P1;SDS_P2;PMS_P1;PMS_P2;Temp;Humidity;BMP_temperature;BMP_pressure;BME280_temperature;BME280_humidity;BME280_pressure;Samples;Min_cycle;Max_cycle;Signal;HPM_P1;HPM_P2
2023/08/23 00:00:40;;;;;;;;;;;;;;;28.94;36.90;100692.41;5055173;28;1103;-29
2023/08/23 00:03:05;;;;;;;;;;;;;;;29.66;36.80;100793.59;5047737;28;1925;-31
2023/08/23 00:05:31;;;;;;;;;;;;;;;29.75;36.64;100792.38;5055267;28;1111;-31
2023/08/23 00:07:56;;;;;;;;;;;;;;;29.63;37.14;100802.13;5054885;28;1079;-33
2023/08/23 00:10:22;;;;;;;;;;;;;;;29.80;36.86;100798.06;5055237;28;1983;-34
2023/08/23 00:12:49;;;;;;;;;;;;;;;29.87;36.67;100799.94;5055351;28;1067;-31
2023/08/23 00:15:16;;;;;;;;;;;;;;;29.77;36.71;100797.63;5068480;28;1057;-34
2023/08/23 00:17:41;;;;;;;;;;;;;;;29.74;36.46;100800.72;5058649;28;893;-32
2023/08/23 00:20:07;;;;;;;;;;;;;;;29.80;36.45;100794.50;5058505;28;1095;-38
2023/08/23 00:22:32;;;;;;;;;;;;;;;29.81;36.48;100798.91;5058820;28;1061;-31
2023/08/23 00:24:58;;;;;;;;;;;;;;;29.86;36.33;100795.56;5058378;28;1044;-30
2023/08/23 00:27:23;;;;;;;;;;;;;;;29.81;36.20;100796.19;5058787;28;1028;-29
2023/08/23 00:29:49;;;;;;;;;;;;;;;29.84;36.03;100794.94;5040175;28;1967;-30
2023/08/23 00:32:14;;;;;;;;;;;;;;;29.83;36.55;100791.38;5058661;28;1044;-34
2023/08/23 00:34:40;;;;;;;;;;;;;;;29.93;36.75;100801.84;5045982;28;1726;-31
2023/08/23 00:37:06;;;;;;;;;;;;;;;29.81;36.15;100802.44;5058500;28;1077;-31
2023/08/23 00:39:32;;;;;;;;;;;;;;;29.74;36.25;100800.72;5040849;28;1282;-30
2023/08/23 00:41:57;;;;;;;;;;;;;;;29.84;36.38;100801.22;5058286;28;834;-30
2023/08/23 00:44:23;;;;;;;;;;;;;;;29.91;36.01;100801.25;5057839;28;1151;-31
2023/08/23 00:46:48;;;;;;;;;;;;;;;29.91;36.00;100802.06;5058546;28;1263;-32
2023/08/23 00:49:14;;;;;;;;;;;;;;;29.87;35.80;100797.25;5040449;28;1977;-30
2023/08/23 00:51:40;;;;;;;;;;;;;;;29.88;36.11;100799.75;5058206;28;1041;-33
2023/08/23 00:54:05;;;;;;;;;;;;;;;29.93;35.69;100808.13;5040091;28;1101;-34
2023/08/23 00:56:31;;;;;;;;;;;;;;;29.75;36.20;100799.69;5057769;28;1546;-32
2023/08/23 00:58:56;;;;;;;;;;;;;;;29.81;36.07;100810.56;5057957;28;1052;-32
2023/08/23 01:01:22;;;;;;;;;;;;;;;29.81;35.88;100807.84;5058159;28;984;-32
2023/08/23 01:03:49;;;;;;;;;;;;;;;29.83;35.98;100804.94;5034050;28;1957;-31
2023/08/23 01:06:14;;;;;;;;;;;;;;;29.81;36.25;100805.13;5058066;28;960;-34
2023/08/23 01:09:02;;;;;;;;;;;;;;;29.90;36.04;100804.97;5057655;28;1139;-30
2023/08/23 01:11:49;;;;;;;;;;;;;;;29.90;35.99;100808.53;5039905;28;1068;-30
2023/08/23 01:14:24;;;;;;;;;;;;;;;29.84;36.01;100803.91;5023360;28;1070;-30
2023/08/23 01:16:50;;;;;;;;;;;;;;;29.78;36.27;100805.53;5057494;28;1052;-34
2023/08/23 01:19:30;;;;;;;;;;;;;;;29.84;36.21;100806.63;5057849;28;1112;-29
2023/08/23 01:21:56;;;;;;;;;;;;;;;29.76;36.11;100801.38;5045720;28;1033;-31
2023/08/23 01:24:21;;;;;;;;;;;;;;;29.73;36.30;100804.47;5039504;28;1116;-32
2023/08/23 01:26:47;;;;;;;;;;;;;;;29.84;36.37;100803.06;5057023;28;1008;-30
2023/08/23 01:29:12;;;;;;;;;;;;;;;29.78;35.98;100797.41;5056711;28;1918;-31
2023/08/23 01:31:39;;;;;;;;;;;;;;;29.80;35.85;100800.75;5039762;28;1141;-32
2023/08/23 01:34:09;;;;;;;;;;;;;;;29.87;35.77;100795.38;5057461;28;1781;-34
2023/08/23 01:36:34;;;;;;;;;;;;;;;29.88;36.09;100793.50;5057634;28;1124;-30
2023/08/23 01:39:00;;;;;;;;;;;;;;;29.85;36.20;100796.59;5039528;28;1056;-34
2023/08/23 01:41:25;;;;;;;;;;;;;;;29.74;36.12;100798.84;5039293;28;892;-35
2023/08/23 01:43:51;;;;;;;;;;;;;;;29.82;36.08;100797.84;5057170;28;1156;-34
2023/08/23 01:46:16;;;;;;;;;;;;;;;29.82;36.04;100798.69;5057403;28;1191;-33
2023/08/23 01:48:42;;;;;;;;;;;;;;;29.81;36.05;100798.91;5056766;28;1008;-33
2023/08/23 01:51:07;;;;;;;;;;;;;;;29.88;36.21;100807.06;5039435;28;1963;-29
2023/08/23 01:53:33;;;;;;;;;;;;;;;29.77;36.21;100793.03;5038844;28;1157;-35
2023/08/23 01:55:59;;;;;;;;;;;;;;;29.86;35.98;100793.72;5057155;28;1109;-29
2023/08/23 01:58:25;;;;;;;;;;;;;;;29.80;36.06;100791.78;5038652;28;1155;-31
2023/08/23 02:00:52;;;;;;;;;;;;;;;29.89;36.25;100789.75;5057276;28;1067;-34
2023/08/23 02:03:18;;;;;;;;;;;;;;;29.85;35.93;100789.31;5038975;28;1870;-32
2023/08/23 02:05:43;;;;;;;;;;;;;;;29.80;36.15;100789.91;5038442;28;1198;-31
2023/08/23 02:08:09;;;;;;;;;;;;;;;29.73;36.20;100782.78;5040058;28;1108;-32
2023/08/23 02:10:34;;;;;;;;;;;;;;;29.79;36.09;100790.13;5068789;28;1901;-30
2023/08/23 02:13:04;;;;;;;;;;;;;;;29.69;35.98;100785.91;5056893;28;1084;-35
2023/08/23 02:15:30;;;;;;;;;;;;;;;29.77;35.83;100779.47;5056539;28;997;-31
2023/08/23 02:17:55;;;;;;;;;;;;;;;29.77;35.87;100778.63;5055968;28;1093;-29
2023/08/23 02:20:21;;;;;;;;;;;;;;;29.75;35.75;100786.97;5056768;28;1005;-32
2023/08/23 02:22:46;;;;;;;;;;;;;;;29.74;36.05;100782.59;5056441;28;1063;-29
2023/08/23 02:25:12;;;;;;;;;;;;;;;29.77;35.98;100779.47;5056669;28;1091;-31
2023/08/23 02:27:37;;;;;;;;;;;;;;;29.77;35.89;100784.91;5056441;28;1091;-32
2023/08/23 02:30:04;;;;;;;;;;;;;;;29.77;36.09;100778.63;5038351;28;1910;-34
2023/08/23 02:32:30;;;;;;;;;;;;;;;29.77;36.05;100784.91;5056251;28;1856;-30
2023/08/23 02:34:55;;;;;;;;;;;;;;;29.75;35.59;100786.13;5043994;28;1000;-30
2023/08/23 02:37:21;;;;;;;;;;;;;;;29.68;35.68;100776.09;5056516;28;1108;-31
2023/08/23 02:39:46;;;;;;;;;;;;;;;29.82;35.70;100781.59;5055598;28;1096;-29
2023/08/23 02:42:12;;;;;;;;;;;;;;;29.75;35.64;100786.13;5038198;28;1525;-31
2023/08/23 02:44:37;;;;;;;;;;;;;;;29.79;35.74;100790.97;5038130;28;1063;-29
2023/08/23 02:47:03;;;;;;;;;;;;;;;29.86;35.67;100784.72;5055875;28;1119;-37
2023/08/23 02:49:28;;;;;;;;;;;;;;;29.85;35.69;100788.47;5056106;28;1906;-29
2023/08/23 02:51:54;;;;;;;;;;;;;;;29.77;35.61;100787.63;5056147;28;1071;-31
2023/08/23 02:54:19;;;;;;;;;;;;;;;29.86;35.54;100791.00;5055683;28;980;-31
2023/08/23 02:56:45;;;;;;;;;;;;;;;29.80;35.63;100783.66;5056091;28;1091;-30
2023/08/23 02:59:10;;;;;;;;;;;;;;;29.78;35.74;100786.56;5055933;28;1160;-30
2023/08/23 03:01:36;;;;;;;;;;;;;;;29.88;35.72;100790.81;5055903;28;973;-32
2023/08/23 03:04:02;;;;;;;;;;;;;;;29.87;35.55;100792.66;5055833;28;2059;-32
2023/08/23 03:06:27;;;;;;;;;;;;;;;29.74;35.61;100789.88;5055606;28;869;-32
2023/08/23 03:08:53;;;;;;;;;;;;;;;29.82;35.63;100796.00;5055941;28;1085;-31
2023/08/23 03:11:18;;;;;;;;;;;;;;;29.84;35.33;100801.22;5055932;28;1906;-32
2023/08/23 03:13:44;;;;;;;;;;;;;;;29.77;35.83;100793.03;5055833;28;1075;-36
2023/08/23 03:16:10;;;;;;;;;;;;;;;29.67;35.92;100800.69;5055610;28;997;-30
2023/08/23 03:18:35;;;;;;;;;;;;;;;28.99;38.83;100802.03;5055387;28;954;-31
2023/08/23 03:21:01;;;;;;;;;;;;;;;28.94;38.77;100802.59;5037612;28;1216;-29
2023/08/23 03:23:26;;;;;;;;;;;;;;;28.95;38.37;100796.13;5037860;28;1175;-34
2023/08/23 03:25:53;;;;;;;;;;;;;;;28.67;40.05;100795.06;5037673;28;1103;-32
2023/08/23 03:28:20;;;;;;;;;;;;;;;28.63;40.26;100793.75;5037834;28;1314;-30
2023/08/23 03:30:47;;;;;;;;;;;;;;;28.64;40.42;100797.28;5042655;28;1906;-34
2023/08/23 03:33:12;;;;;;;;;;;;;;;28.58;40.72;100796.19;5043329;28;1941;-32
2023/08/23 03:35:38;;;;;;;;;;;;;;;28.64;40.42;100795.44;5037469;28;1036;-32
2023/08/23 03:38:04;;;;;;;;;;;;;;;28.96;38.98;100801.34;5055031;28;1041;-29
2023/08/23 03:40:36;;;;;;;;;;;;;;;28.84;40.35;100795.59;5054632;28;1040;-31
2023/08/23 03:43:02;;;;;;;;;;;;;;;28.30;41.73;100791.47;5037213;28;2130;-30
2023/08/23 03:45:27;;;;;;;;;;;;;;;28.58;40.40;100794.31;5037584;28;1294;-30
2023/08/23 03:47:53;;;;;;;;;;;;;;;28.44;41.42;100789.81;5037801;28;1340;-32
2023/08/23 03:50:19;;;;;;;;;;;;;;;28.32;41.57;100798.41;5037035;28;1985;-31
2023/08/23 03:52:44;;;;;;;;;;;;;;;28.29;41.83;100790.66;5041738;28;1122;-29
2023/08/23 03:55:10;;;;;;;;;;;;;;;28.48;41.28;100791.94;5040961;28;1365;-30
2023/08/23 03:57:35;;;;;;;;;;;;;;;28.39;41.78;100797.66;5059495;28;1012;-32
2023/08/23 04:00:01;;;;;;;;;;;;;;;28.30;41.63;100795.03;5061467;28;1121;-35
2023/08/23 04:02:26;;;;;;;;;;;;;;;28.23;41.49;100796.81;5078893;28;1047;-32
2023/08/23 04:04:52;;;;;;;;;;;;;;;28.31;41.73;100794.00;5057224;28;2135;-32
2023/08/23 04:07:17;;;;;;;;;;;;;;;28.64;40.37;100797.28;5070433;28;921;-31
2023/08/23 04:09:43;;;;;;;;;;;;;;;28.17;41.59;100795.72;5060222;28;1906;-32
2023/08/23 04:12:10;;;;;;;;;;;;;;;25.61;46.54;100800.88;5077890;28;1026;-28
2023/08/23 04:14:38;;;;;;;;;;;;;;;24.88;47.46;100797.00;5078165;28;1198;-30
2023/08/23 04:17:03;;;;;;;;;;;;;;;23.99;48.65;100795.53;5060350;28;1300;-30
2023/08/23 04:19:29;;;;;;;;;;;;;;;23.46;49.37;100804.47;5073822;28;1297;-35
2023/08/23 04:21:55;;;;;;;;;;;;;;;23.27;49.19;100800.13;5078246;28;1234;-32
2023/08/23 04:24:20;;;;;;;;;;;;;;;22.94;49.55;100797.97;5060517;28;1405;-33
2023/08/23 04:26:46;;;;;;;;;;;;;;;24.09;47.09;100798.94;5060460;28;1278;-33
2023/08/23 04:29:11;;;;;;;;;;;;;;;26.39;42.04;100795.75;5060117;28;1963;-32
2023/08/23 04:31:37;;;;;;;;;;;;;;;27.41;38.95;100802.13;5056469;28;1259;-32
2023/08/23 04:34:10;;;;;;;;;;;;;;;27.92;38.00;100809.53;5057398;28;1805;-31
2023/08/23 04:36:36;;;;;;;;;;;;;;;28.15;37.52;100807.72;5059888;28;1255;-30
2023/08/23 04:39:02;;;;;;;;;;;;;;;28.20;37.20;100805.31;5060336;28;1254;-31
2023/08/23 04:41:28;;;;;;;;;;;;;;;28.28;37.10;100816.00;5059852;28;1299;-29
2023/08/23 04:43:53;;;;;;;;;;;;;;;28.29;36.92;100815.00;5075244;28;1325;-32
2023/08/23 04:46:19;;;;;;;;;;;;;;;28.34;36.67;100822.56;5060144;28;1246;-30
2023/08/23 04:48:45;;;;;;;;;;;;;;;28.50;36.73;100818.81;5060113;28;1235;-29
2023/08/23 04:51:11;;;;;;;;;;;;;;;28.59;36.70;100824.94;5059555;28;1981;-28
2023/08/23 04:53:37;;;;;;;;;;;;;;;28.66;36.62;100816.91;5059273;28;1251;-30
2023/08/23 04:56:03;;;;;;;;;;;;;;;28.40;37.35;100821.81;5057770;28;1248;-31
2023/08/23 04:58:32;;;;;;;;;;;;;;;28.41;37.05;100817.25;5059644;28;1682;-29
2023/08/23 05:00:58;;;;;;;;;;;;;;;28.36;36.88;100817.81;5059360;28;1337;-29
2023/08/23 05:03:26;;;;;;;;;;;;;;;28.31;37.14;100823.75;5055640;28;2288;-31
2023/08/23 05:05:52;;;;;;;;;;;;;;;28.40;37.12;100824.53;5057774;28;1191;-31
2023/08/23 05:08:17;;;;;;;;;;;;;;;28.48;36.79;100821.69;5057147;28;1324;-32
2023/08/23 05:10:43;;;;;;;;;;;;;;;28.60;36.70;100826.59;5059616;28;1902;-29
2023/08/23 05:13:10;;;;;;;;;;;;;;;28.67;36.63;100826.69;5077576;28;1305;-32
2023/08/23 05:15:35;;;;;;;;;;;;;;;28.53;36.93;100831.13;5059353;28;2066;-33
2023/08/23 05:18:01;;;;;;;;;;;;;;;28.49;36.56;100827.97;5057133;28;1270;-31
2023/08/23 05:20:26;;;;;;;;;;;;;;;28.37;36.66;100822.19;5057703;28;1960;-33
2023/08/23 05:22:52;;;;;;;;;;;;;;;28.44;36.55;100824.97;5059615;28;1282;-32
2023/08/23 05:25:18;;;;;;;;;;;;;;;28.50;35.76;100826.91;5060078;28;1102;-29
2023/08/23 05:27:43;;;;;;;;;;;;;;;28.44;36.26;100820.41;5059491;28;1193;-30
2023/08/23 05:30:09;;;;;;;;;;;;;;;28.68;36.30;100821.06;5056220;28;1910;-31
2023/08/23 05:32:35;;;;;;;;;;;;;;;28.68;36.41;100821.06;5075427;28;2256;-32
2023/08/23 05:35:03;;;;;;;;;;;;;;;28.44;36.51;100817.72;5059311;28;1333;-29
2023/08/23 05:37:28;;;;;;;;;;;;;;;28.71;35.91;100817.16;5077836;28;1058;-28
2023/08/23 05:39:54;;;;;;;;;;;;;;;28.74;35.74;100819.47;5059151;28;1114;-33
2023/08/23 05:42:19;;;;;;;;;;;;;;;28.65;36.15;100815.19;5073532;28;1125;-30
2023/08/23 05:44:45;;;;;;;;;;;;;;;28.52;36.47;100810.50;5042949;28;1242;-30
2023/08/23 05:47:11;;;;;;;;;;;;;;;28.53;36.43;100809.47;5077274;28;1095;-29
2023/08/23 05:49:36;;;;;;;;;;;;;;;28.72;35.77;100816.97;5056623;28;1901;-32
2023/08/23 05:52:02;;;;;;;;;;;;;;;28.83;35.94;100820.16;5039491;28;1130;-30
2023/08/23 05:54:28;;;;;;;;;;;;;;;28.66;36.30;100809.59;5069701;28;1202;-29
2023/08/23 05:56:54;;;;;;;;;;;;;;;28.79;36.07;100811.63;5066809;28;1108;-29
2023/08/23 05:59:19;;;;;;;;;;;;;;;28.56;36.50;100814.50;5076498;28;1147;-32
2023/08/23 06:01:45;;;;;;;;;;;;;;;28.51;36.41;100809.63;5077399;28;1187;-32
2023/08/23 06:04:10;;;;;;;;;;;;;;;28.39;36.48;100806.63;5063329;28;2274;-30
2023/08/23 06:06:36;;;;;;;;;;;;;;;28.36;36.46;100804.28;5062256;28;1036;-31
2023/08/23 06:09:02;;;;;;;;;;;;;;;28.38;36.42;100807.63;5059281;28;1051;-31
2023/08/23 06:11:27;;;;;;;;;;;;;;;28.74;35.75;100800.53;5076217;28;1910;-29
2023/08/23 06:13:54;;;;;;;;;;;;;;;29.01;35.69;100802.69;5076479;28;1314;-29
2023/08/23 06:16:20;;;;;;;;;;;;;;;28.89;35.88;100811.28;5076205;28;1278;-34
2023/08/23 06:18:45;;;;;;;;;;;;;;;28.66;36.20;100806.06;5071807;28;1218;-32
2023/08/23 06:21:11;;;;;;;;;;;;;;;28.70;36.22;100808.19;5076456;28;1210;-35
2023/08/23 06:23:41;;;;;;;;;;;;;;;28.71;35.75;100811.75;5076233;28;1199;-30
2023/08/23 06:26:07;;;;;;;;;;;;;;;28.58;36.18;100815.13;5076456;28;1389;-30
2023/08/23 06:28:32;;;;;;;;;;;;;;;28.56;36.10;100812.63;5076060;28;1207;-30
2023/08/23 06:30:58;;;;;;;;;;;;;;;28.89;36.10;100810.44;5072530;28;1906;-33
2023/08/23 06:33:23;;;;;;;;;;;;;;;29.06;35.35;100806.47;5072144;28;2238;-30
2023/08/23 06:35:49;;;;;;;;;;;;;;;28.88;35.60;100811.50;5076184;28;1043;-32
2023/08/23 06:38:15;;;;;;;;;;;;;;;28.64;35.73;100813.53;5076095;28;1035;-30
2023/08/23 06:40:42;;;;;;;;;;;;;;;28.55;35.69;100820.94;5076838;28;1055;-35
2023/08/23 06:43:07;;;;;;;;;;;;;;;28.69;35.42;100817.34;5072095;28;1046;-31
2023/08/23 06:45:33;;;;;;;;;;;;;;;28.47;35.81;100819.19;5057738;28;1296;-31
2023/08/23 06:47:59;;;;;;;;;;;;;;;28.38;35.97;100817.63;5075790;28;1270;-33
2023/08/23 06:50:24;;;;;;;;;;;;;;;28.49;36.14;100822.53;5071235;28;1906;-33
2023/08/23 06:52:50;;;;;;;;;;;;;;;28.80;35.94;100818.69;5067944;28;1417;-31
2023/08/23 06:55:15;;;;;;;;;;;;;;;28.89;35.63;100826.69;5072183;28;1235;-29
2023/08/23 06:57:41;;;;;;;;;;;;;;;28.63;36.07;100828.94;5069996;28;1218;-29
2023/08/23 07:00:06;;;;;;;;;;;;;;;28.58;35.81;100821.38;5075847;28;1269;-33
2023/08/23 07:02:32;;;;;;;;;;;;;;;28.54;35.96;100825.53;5074841;28;1816;-30
2023/08/23 07:04:58;;;;;;;;;;;;;;;28.68;35.69;100810.25;5073057;28;1370;-34
2023/08/23 07:07:23;;;;;;;;;;;;;;;28.79;36.62;100813.47;5068776;28;1099;-31
2023/08/23 07:09:49;;;;;;;;;;;;;;;28.75;35.72;100813.03;5056646;28;1980;-29
2023/08/23 07:12:15;;;;;;;;;;;;;;;28.71;36.07;100823.41;5076150;28;1071;-34
2023/08/23 07:14:40;;;;;;;;;;;;;;;28.65;35.66;100815.19;5075501;28;1000;-29
2023/08/23 07:17:07;;;;;;;;;;;;;;;28.62;34.78;100827.25;5075647;28;1032;-34
2023/08/23 07:19:33;;;;;;;;;;;;;;;28.62;34.90;100823.72;5067855;28;1297;-33
2023/08/23 07:21:58;;;;;;;;;;;;;;;28.50;35.27;100823.38;5063014;28;1072;-33
2023/08/23 07:24:24;;;;;;;;;;;;;;;28.51;35.13;100820.47;5075668;28;1050;-35
2023/08/23 07:26:49;;;;;;;;;;;;;;;28.60;35.16;100821.19;5075490;28;1035;-30
2023/08/23 07:29:16;;;;;;;;;;;;;;;28.59;35.61;100824.94;5075741;28;1988;-32
2023/08/23 07:31:45;;;;;;;;;;;;;;;28.53;35.58;100820.31;5067666;28;1038;-31
2023/08/23 07:34:10;;;;;;;;;;;;;;;28.60;36.16;100826.59;5056046;28;1800;-35
2023/08/23 07:36:36;;;;;;;;;;;;;;;28.67;36.35;100819.41;5063848;28;1100;-34
2023/08/23 07:39:01;;;;;;;;;;;;;;;28.70;36.50;100823.59;5075457;28;1099;-33
2023/08/23 07:41:27;;;;;;;;;;;;;;;28.68;36.11;100817.53;5075388;28;1004;-32
2023/08/23 07:43:52;;;;;;;;;;;;;;;28.65;36.49;100809.78;5067081;28;1139;-32
2023/08/23 07:46:18;;;;;;;;;;;;;;;28.71;36.47;100804.44;5063755;28;1119;-32
2023/08/23 07:48:43;;;;;;;;;;;;;;;28.68;36.52;100807.53;5075350;28;1131;-36
2023/08/23 07:51:09;;;;;;;;;;;;;;;28.70;36.82;100805.50;5075679;28;1909;-33
2023/08/23 07:53:35;;;;;;;;;;;;;;;28.75;37.43;100804.06;5073542;28;1123;-31
2023/08/23 07:56:01;;;;;;;;;;;;;;;28.76;37.70;100803.03;5063835;28;852;-34
2023/08/23 07:58:26;;;;;;;;;;;;;;;28.75;37.75;100806.75;5043979;28;1464;-30
2023/08/23 08:00:52;;;;;;;;;;;;;;;28.70;38.11;100807.34;5075545;28;1179;-30
2023/08/23 08:03:17;;;;;;;;;;;;;;;28.68;38.37;100810.25;5068571;28;2347;-31
2023/08/23 08:05:43;;;;;;;;;;;;;;;28.73;37.89;100809.66;5063778;28;1123;-35
2023/08/23 08:08:08;;;;;;;;;;;;;;;28.75;38.00;100806.75;5059998;28;1083;-33
2023/08/23 08:10:34;;;;;;;;;;;;;;;28.82;37.88;100804.97;5071715;28;2020;-32
2023/08/23 08:13:00;;;;;;;;;;;;;;;28.88;37.91;100806.06;5075146;28;1282;-30
2023/08/23 08:15:25;;;;;;;;;;;;;;;28.87;38.01;100807.09;5075146;28;1251;-34
2023/08/23 08:17:52;;;;;;;;;;;;;;;28.85;38.01;100804.56;5074655;28;1207;-34
2023/08/23 08:20:18;;;;;;;;;;;;;;;29.01;37.10;100798.09;5061666;28;1258;-33
2023/08/23 08:22:44;;;;;;;;;;;;;;;29.02;37.04;100796.22;5071343;28;1131;-33
2023/08/23 08:25:09;;;;;;;;;;;;;;;28.97;36.89;100802.22;5074808;28;1218;-33
2023/08/23 08:27:35;;;;;;;;;;;;;;;28.98;36.47;100801.19;5070119;28;1063;-32
2023/08/23 08:30:01;;;;;;;;;;;;;;;28.95;36.85;100802.41;5074800;28;1981;-35
2023/08/23 08:32:26;;;;;;;;;;;;;;;28.99;36.81;100805.59;5065121;28;1178;-30
2023/08/23 08:34:52;;;;;;;;;;;;;;;29.09;36.90;100803.34;5057358;28;2804;-30
2023/08/23 08:37:18;;;;;;;;;;;;;;;29.11;36.95;100810.47;5075199;28;1293;-34
2023/08/23 08:39:44;;;;;;;;;;;;;;;29.07;36.72;100800.03;5078058;28;1103;-32
2023/08/23 08:42:09;;;;;;;;;;;;;;;29.18;35.68;100798.66;5074739;28;1093;-30
2023/08/23 08:44:35;;;;;;;;;;;;;;;29.09;36.31;100799.84;5050094;28;958;-34
2023/08/23 08:47:00;;;;;;;;;;;;;;;28.96;36.41;100795.94;5072178;28;1159;-31
2023/08/23 08:49:26;;;;;;;;;;;;;;;28.98;36.37;100787.63;5051694;28;1909;-32
2023/08/23 08:51:51;;;;;;;;;;;;;;;29.08;36.26;100788.16;5078520;28;1369;-29
2023/08/23 08:54:17;;;;;;;;;;;;;;;29.20;35.88;100791.16;5078096;28;1118;-31
2023/08/23 08:56:44;;;;;;;;;;;;;;;29.12;36.31;100779.63;5049915;28;1135;-29
2023/08/23 08:59:09;;;;;;;;;;;;;;;29.18;35.98;100785.09;5046902;28;1304;-31
2023/08/23 09:01:35;;;;;;;;;;;;;;;29.23;35.83;100784.50;5059212;28;1090;-31
2023/08/23 09:04:00;;;;;;;;;;;;;;;28.97;36.61;100783.28;5047497;28;2259;-32
2023/08/23 09:06:26;;;;;;;;;;;;;;;29.01;36.19;100784.53;5066054;28;1095;-31
2023/08/23 09:08:52;;;;;;;;;;;;;;;29.01;35.94;100779.13;5049059;28;1120;-32
2023/08/23 09:11:17;;;;;;;;;;;;;;;28.89;36.46;100775.25;5048312;28;1966;-30
2023/08/23 09:13:43;;;;;;;;;;;;;;;28.89;36.59;100777.97;5077361;28;1055;-32
2023/08/23 09:16:08;;;;;;;;;;;;;;;28.87;36.46;100777.31;5078007;28;1039;-31
2023/08/23 09:18:34;;;;;;;;;;;;;;;28.89;36.37;100764.44;5059556;28;1035;-36
2023/08/23 09:21:00;;;;;;;;;;;;;;;29.06;35.68;100765.84;5073135;28;877;-30
2023/08/23 09:23:32;;;;;;;;;;;;;;;29.16;35.39;100762.78;5077769;28;1072;-31
2023/08/23 09:25:58;;;;;;;;;;;;;;;28.99;36.00;100766.81;5068985;28;1490;-31
2023/08/23 09:28:28;;;;;;;;;;;;;;;28.95;36.09;100764.47;5065445;28;1072;-31
2023/08/23 09:30:54;;;;;;;;;;;;;;;29.05;36.04;100753.34;5064137;28;1964;-30
2023/08/23 09:33:21;;;;;;;;;;;;;;;29.11;35.86;100749.03;5064164;28;2316;-33
2023/08/23 09:35:48;;;;;;;;;;;;;;;29.05;36.02;100747.94;5059351;28;1113;-32
2023/08/23 09:38:22;;;;;;;;;;;;;;;29.03;36.20;100743.75;5077602;28;1122;-30
2023/08/23 09:40:48;;;;;;;;;;;;;;;29.22;36.11;100747.63;5076210;28;1020;-33
2023/08/23 09:43:17;;;;;;;;;;;;;;;29.13;36.06;100743.41;5076874;28;1333;-34
2023/08/23 09:45:42;;;;;;;;;;;;;;;29.12;36.00;100744.41;5072510;28;1444;-32
2023/08/23 09:48:09;;;;;;;;;;;;;;;29.02;36.03;100733.94;5071111;28;1274;-33
2023/08/23 09:50:34;;;;;;;;;;;;;;;28.95;36.80;100733.84;5076675;28;1973;-30
2023/08/23 09:53:09;;;;;;;;;;;;;;;28.98;36.79;100736.19;5059312;28;1301;-33
2023/08/23 09:55:35;;;;;;;;;;;;;;;29.08;36.66;100733.13;5076991;28;1274;-32
2023/08/23 09:58:00;;;;;;;;;;;;;;;29.14;36.22;100736.94;5059478;28;1137;-33
2023/08/23 10:00:27;;;;;;;;;;;;;;;29.00;36.36;100736.00;5059675;28;1072;-32
2023/08/23 10:02:53;;;;;;;;;;;;;;;29.02;35.92;100737.50;5073776;28;2424;-34
2023/08/23 10:05:19;;;;;;;;;;;;;;;29.06;36.00;100732.53;5072958;28;1066;-36
2023/08/23 10:07:44;;;;;;;;;;;;;;;28.99;35.96;100727.06;5077254;28;1058;-34
2023/08/23 10:10:10;;;;;;;;;;;;;;;28.98;36.24;100729.97;5060703;28;1906;-36
2023/08/23 10:12:36;;;;;;;;;;;;;;;29.08;36.25;100733.13;5067439;28;1065;-30
2023/08/23 10:15:02;;;;;;;;;;;;;;;29.09;36.45;100724.81;5054628;28;1005;-32
2023/08/23 10:17:28;;;;;;;;;;;;;;;29.02;36.57;100721.25;5076577;28;1019;-29
2023/08/23 10:19:53;;;;;;;;;;;;;;;29.03;36.52;100724.78;5076245;28;1106;-34
2023/08/23 10:22:19;;;;;;;;;;;;;;;29.07;36.22;100717.94;5058279;28;1002;-33
2023/08/23 10:24:48;;;;;;;;;;;;;;;29.04;36.30;100715.63;5071814;28;1040;-32
2023/08/23 10:27:13;;;;;;;;;;;;;;;29.04;36.39;100726.47;5076506;28;996;-35
2023/08/23 10:29:39;;;;;;;;;;;;;;;29.01;36.16;100724.16;5077030;28;1910;-35
2023/08/23 10:32:05;;;;;;;;;;;;;;;29.06;36.17;100717.09;5076252;28;1195;-33
2023/08/23 10:34:32;;;;;;;;;;;;;;;29.08;36.12;100717.72;5056206;28;1777;-35
2023/08/23 10:36:58;;;;;;;;;;;;;;;29.09;35.85;100713.97;5067511;28;1060;-30
2023/08/23 10:39:23;;;;;;;;;;;;;;;29.01;36.04;100716.84;5075867;28;1054;-32
2023/08/23 10:41:50;;;;;;;;;;;;;;;29.17;35.82;100720.28;5055152;28;1117;-30
2023/08/23 10:44:16;;;;;;;;;;;;;;;28.99;36.36;100702.69;5075645;28;1186;-32
2023/08/23 10:46:44;;;;;;;;;;;;;;;29.14;36.05;100715.28;5068823;28;1139;-31
2023/08/23 10:49:14;;;;;;;;;;;;;;;29.10;35.95;100709.41;5075876;28;1281;-32
2023/08/23 10:51:42;;;;;;;;;;;;;;;28.97;36.42;100712.88;5075979;28;1206;-32
2023/08/23 10:54:10;;;;;;;;;;;;;;;29.07;35.98;100704.41;5075810;28;1238;-32
2023/08/23 10:56:35;;;;;;;;;;;;;;;29.11;36.01;100696.72;5055688;28;1215;-30
2023/08/23 10:59:01;;;;;;;;;;;;;;;29.11;35.73;100697.56;5074518;28;1219;-35
2023/08/23 11:01:27;;;;;;;;;;;;;;;29.12;36.08;100696.50;5074954;28;1214;-31
2023/08/23 11:03:52;;;;;;;;;;;;;;;29.12;35.45;100692.97;5070477;28;1850;-33
2023/08/23 11:06:18;;;;;;;;;;;;;;;29.01;36.02;100688.94;5058104;28;1254;-33
2023/08/23 11:08:44;;;;;;;;;;;;;;;29.02;35.64;100685.19;5054955;28;1247;-31
2023/08/23 11:11:11;;;;;;;;;;;;;;;29.11;35.80;100681.31;5072691;28;1910;-31
2023/08/23 11:13:36;;;;;;;;;;;;;;;29.21;35.53;100683.66;5075403;28;1297;-31
2023/08/23 11:16:02;;;;;;;;;;;;;;;29.17;35.74;100688.63;5075732;28;1207;-35
2023/08/23 11:18:27;;;;;;;;;;;;;;;29.03;36.12;100684.19;5075403;28;1305;-30
2023/08/23 11:20:53;;;;;;;;;;;;;;;29.07;36.13;100689.00;5054729;28;1243;-32
2023/08/23 11:23:19;;;;;;;;;;;;;;;28.98;36.09;100681.22;5055987;28;1235;-36
2023/08/23 11:25:45;;;;;;;;;;;;;;;28.97;36.20;100683.06;5075518;28;1305;-33
2023/08/23 11:28:12;;;;;;;;;;;;;;;28.91;36.28;100687.38;5057332;28;1200;-32
2023/08/23 11:30:38;;;;;;;;;;;;;;;29.01;36.05;100680.81;5075690;28;1909;-32
2023/08/23 11:33:04;;;;;;;;;;;;;;;29.02;36.12;100672.50;5062740;28;2352;-34
2023/08/23 11:35:29;;;;;;;;;;;;;;;28.92;36.34;100670.09;5068025;28;1128;-31
2023/08/23 11:37:55;;;;;;;;;;;;;;;29.04;35.86;100670.44;5074943;28;1273;-30
2023/08/23 11:40:24;;;;;;;;;;;;;;;29.04;36.09;100664.16;5075390;28;1314;-36
2023/08/23 11:42:49;;;;;;;;;;;;;;;29.01;36.36;100654.56;5057290;28;1222;-32
2023/08/23 11:45:15;;;;;;;;;;;;;;;29.02;36.04;100652.69;5070726;28;1258;-30
2023/08/23 11:47:41;;;;;;;;;;;;;;;29.03;36.13;100657.09;5075117;28;1223;-34
2023/08/23 11:50:10;;;;;;;;;;;;;;;29.04;35.91;100650.63;5075293;28;1938;-33
2023/08/23 11:52:35;;;;;;;;;;;;;;;29.01;36.05;100653.75;5075010;28;1262;-30
2023/08/23 11:55:01;;;;;;;;;;;;;;;28.99;36.10;100650.38;5074965;28;1175;-29
2023/08/23 11:57:27;;;;;;;;;;;;;;;29.08;36.04;100655.44;5065042;28;1254;-32
2023/08/23 11:59:52;;;;;;;;;;;;;;;29.08;35.84;100655.44;5074863;28;1270;-31
2023/08/23 12:02:18;;;;;;;;;;;;;;;29.16;35.52;100651.72;5074921;28;1179;-33
2023/08/23 12:04:44;;;;;;;;;;;;;;;29.19;35.73;100645.94;5071212;28;2578;-31
2023/08/23 12:07:09;;;;;;;;;;;;;;;29.17;35.70;100650.72;5074989;28;1210;-33
2023/08/23 12:09:35;;;;;;;;;;;;;;;29.29;34.96;100651.00;5072775;28;1898;-34
2023/08/23 12:12:02;;;;;;;;;;;;;;;29.16;35.00;100648.22;5076034;28;1266;-32
2023/08/23 12:14:28;;;;;;;;;;;;;;;29.08;35.55;100644.59;5078782;28;1281;-35
2023/08/23 12:16:56;;;;;;;;;;;;;;;29.20;35.33;100642.19;5079196;28;1262;-32
2023/08/23 12:19:22;;;;;;;;;;;;;;;29.17;35.31;100642.59;5078357;28;1167;-33
2023/08/23 12:21:50;;;;;;;;;;;;;;;29.17;35.13;100642.59;5075562;28;1190;-33
2023/08/23 12:24:16;;;;;;;;;;;;;;;29.07;34.81;100645.66;5079109;28;1163;-34
2023/08/23 12:26:41;;;;;;;;;;;;;;;28.98;35.02;100646.00;5075349;28;1142;-33
2023/08/23 12:29:07;;;;;;;;;;;;;;;28.89;35.63;100640.72;5059037;28;1223;-32
2023/08/23 12:31:32;;;;;;;;;;;;;;;29.08;35.29;100632.94;5077961;28;1905;-37
2023/08/23 12:33:58;;;;;;;;;;;;;;;29.08;35.37;100638.34;5071912;28;1825;-32
2023/08/23 12:36:25;;;;;;;;;;;;;;;29.14;35.09;100644.84;5078548;28;1302;-31
2023/08/23 12:38:51;;;;;;;;;;;;;;;29.08;35.16;100641.06;5078603;28;1309;-31
2023/08/23 12:41:16;;;;;;;;;;;;;;;29.00;35.40;100635.78;5073064;28;1226;-31